createdAt,value
2019-01-08T00:01:07.845Z,92.50
2019-01-08T00:03:36.297Z,92.80
2019-01-08T00:06:24.079Z,92.20
2019-01-08T00:08:52.538Z,92.00
2019-01-08T00:11:20.977Z,90.70
2019-01-08T00:13:49.426Z,91.20
2019-01-08T00:16:17.884Z,91.30
2019-01-08T00:18:46.326Z,91.50
2019-01-08T00:21:14.790Z,90.50
2019-01-08T00:24:02.572Z,90.20
2019-01-08T00:26:31.103Z,89.80
2019-01-08T00:28:59.534Z,90.10
2019-01-08T00:31:27.969Z,89.70
2019-01-08T00:33:56.427Z,87.00
2019-01-08T00:36:24.862Z,85.40
2019-01-08T00:38:53.323Z,85.90
2019-01-08T00:41:41.171Z,88.20
2019-01-08T00:44:09.636Z,86.70
2019-01-08T00:46:57.409Z,89.00
2019-01-08T00:49:25.870Z,88.90
2019-01-08T00:51:54.314Z,87.80
2019-01-08T00:54:42.126Z,90.10
2019-01-08T00:57:10.570Z,90.00
2019-01-08T00:59:39.010Z,89.70
2019-01-08T01:02:07.546Z,89.70
2019-01-08T01:04:36.010Z,88.00
2019-01-08T01:07:23.806Z,88.40
2019-01-08T01:09:52.256Z,90.30
2019-01-08T01:12:20.764Z,89.00
2019-01-08T01:14:49.213Z,90.50
2019-01-08T01:17:17.658Z,90.10
2019-01-08T01:19:46.118Z,91.30
2019-01-08T01:22:14.563Z,91.30
2019-01-08T01:25:23.507Z,91.90
2019-01-08T01:30:41.391Z,91.80
2019-01-08T01:33:09.920Z,91.00
2019-01-08T01:35:58.724Z,90.60
2019-01-08T01:38:46.541Z,90.50
2019-01-08T01:41:14.990Z,91.00
2019-01-08T01:43:43.433Z,92.20
2019-01-08T01:46:11.905Z,92.70
2019-01-08T01:48:40.435Z,93.30
2019-01-08T01:51:08.858Z,93.20
2019-01-08T01:53:37.320Z,94.00
2019-01-08T01:56:05.897Z,93.50
2019-01-08T01:58:34.397Z,93.90
2019-01-08T02:01:02.838Z,94.40
2019-01-08T02:03:31.277Z,94.30
2019-01-08T02:05:59.783Z,94.70
2019-01-08T02:08:28.223Z,94.60
2019-01-08T02:10:56.678Z,94.70
2019-01-08T02:13:25.114Z,95.00
2019-01-08T02:15:53.575Z,94.90
2019-01-08T02:18:22.015Z,94.50
2019-01-08T02:20:52.396Z,94.70
2019-01-08T02:23:20.633Z,95.00
2019-01-08T02:25:49.071Z,95.00
2019-01-08T02:28:17.545Z,95.00
2019-01-08T02:30:46.010Z,95.00
2019-01-08T02:33:14.585Z,94.90
2019-01-08T02:35:43.052Z,95.20
2019-01-08T02:38:11.495Z,95.10
2019-01-08T02:40:39.953Z,95.40
2019-01-08T02:43:08.398Z,95.50
2019-01-08T02:45:56.226Z,95.50
2019-01-08T02:48:44.065Z,95.60
2019-01-08T02:51:12.523Z,95.60
2019-01-08T02:54:00.298Z,95.60
2019-01-08T02:56:28.758Z,95.70
2019-01-08T02:58:57.210Z,95.80
2019-01-08T03:01:45.106Z,95.80
2019-01-08T03:04:13.569Z,95.80
2019-01-08T03:06:42.031Z,95.90
2019-01-08T03:09:31.454Z,95.80
2019-01-08T03:11:59.918Z,95.90
2019-01-08T03:14:28.445Z,95.60
2019-01-08T03:16:56.946Z,95.50
2019-01-08T03:19:25.407Z,95.40
2019-01-08T03:21:53.851Z,95.00
2019-01-08T03:24:22.312Z,95.00
2019-01-08T03:26:50.750Z,94.90
2019-01-08T03:29:19.194Z,95.10
2019-01-08T03:31:47.656Z,95.00
2019-01-08T03:34:16.175Z,94.80
2019-01-08T03:37:03.971Z,94.80
2019-01-08T03:39:32.910Z,94.80
2019-01-08T03:42:01.374Z,94.90
2019-01-08T03:44:49.151Z,95.10
2019-01-08T03:47:17.911Z,95.40
2019-01-08T03:49:46.353Z,95.60
2019-01-08T03:52:14.788Z,95.90
2019-01-08T03:54:43.242Z,95.90
2019-01-08T03:57:11.679Z,95.90
2019-01-08T03:59:41.982Z,96.20
2019-01-08T04:02:10.298Z,96.30
2019-01-08T04:04:58.090Z,96.30
2019-01-08T04:07:26.561Z,96.30
2019-01-08T04:09:55.175Z,96.30
2019-01-08T04:12:25.093Z,96.30
2019-01-08T04:14:53.779Z,96.30
2019-01-08T04:17:22.401Z,96.20
2019-01-08T04:19:50.826Z,96.10
2019-01-08T04:22:19.278Z,96.20
2019-01-08T04:24:47.721Z,96.30
2019-01-08T04:27:16.177Z,96.40
2019-01-08T04:29:50.473Z,96.50
2019-01-08T04:32:16.205Z,96.40
2019-01-08T04:34:44.705Z,96.50
2019-01-08T04:37:13.166Z,96.70
2019-01-08T04:39:41.758Z,96.80
2019-01-08T04:42:10.198Z,96.90
2019-01-08T04:44:57.994Z,97.00
2019-01-08T04:47:45.779Z,97.00
2019-01-08T04:50:14.259Z,97.10
2019-01-08T04:52:42.710Z,97.20
2019-01-08T04:55:11.150Z,97.30
2019-01-08T04:57:39.622Z,97.30
2019-01-08T05:00:10.067Z,97.30
2019-01-08T05:02:38.520Z,97.30
2019-01-08T05:05:06.956Z,97.30
2019-01-08T05:07:35.413Z,97.30
2019-01-08T05:10:04.891Z,97.30
2019-01-08T05:12:33.330Z,97.30
2019-01-08T05:15:01.800Z,97.30
2019-01-08T05:17:49.582Z,97.20
2019-01-08T05:20:37.382Z,97.20
2019-01-08T05:23:05.828Z,97.20
2019-01-08T05:25:34.292Z,97.20
2019-01-08T05:28:22.144Z,97.40
2019-01-08T05:30:50.613Z,97.20
2019-01-08T05:33:38.394Z,97.30
2019-01-08T05:36:26.202Z,97.40
2019-01-08T05:39:13.974Z,97.30
2019-01-08T05:41:42.446Z,97.30
2019-01-08T05:44:10.901Z,97.40
2019-01-08T05:46:39.436Z,97.40
2019-01-08T05:49:07.895Z,97.20
2019-01-08T05:51:36.336Z,97.20
2019-01-08T05:54:04.905Z,97.10
2019-01-08T05:56:33.413Z,97.10
2019-01-08T05:59:01.881Z,97.20
2019-01-08T06:01:30.315Z,97.10
2019-01-08T06:03:58.779Z,97.00
2019-01-08T06:06:27.226Z,96.80
2019-01-08T06:08:55.672Z,96.60
2019-01-08T06:11:24.204Z,96.40
2019-01-08T06:13:52.722Z,96.60
2019-01-08T06:16:21.175Z,96.20
2019-01-08T06:18:49.613Z,96.20
2019-01-08T06:21:18.370Z,96.10
2019-01-08T06:23:46.810Z,96.00
2019-01-08T06:26:15.274Z,95.90
2019-01-08T06:28:43.793Z,95.90
2019-01-08T06:31:12.254Z,96.00
2019-01-08T06:33:40.725Z,96.00
2019-01-08T06:36:09.166Z,96.00
2019-01-08T06:38:37.622Z,95.80
2019-01-08T06:41:06.265Z,95.90
2019-01-08T06:43:34.702Z,96.00
2019-01-08T06:46:03.167Z,96.10
2019-01-08T06:48:31.673Z,96.00
2019-01-08T06:51:00.136Z,95.90
2019-01-08T06:53:28.571Z,95.70
2019-01-08T06:55:57.007Z,95.70
2019-01-08T06:58:25.484Z,95.30
2019-01-08T07:01:05.575Z,95.70
2019-01-08T07:03:24.241Z,95.80
2019-01-08T07:05:52.682Z,95.80
2019-01-08T07:08:21.139Z,95.90
2019-01-08T07:10:49.580Z,95.90
2019-01-08T07:13:18.126Z,96.10
2019-01-08T07:16:06.107Z,96.10
2019-01-08T07:18:34.574Z,96.20
2019-01-08T07:21:03.137Z,96.40
2019-01-08T07:23:31.601Z,96.50
2019-01-08T07:26:19.523Z,97.00
2019-01-08T07:28:47.987Z,97.50
2019-01-08T07:31:16.749Z,97.90
2019-01-08T07:33:45.248Z,97.90
2019-01-08T07:36:13.829Z,98.00
2019-01-08T07:38:42.279Z,97.90
2019-01-08T07:41:13.077Z,97.90
2019-01-08T07:43:41.678Z,97.80
2019-01-08T07:46:11.293Z,97.80
2019-01-08T07:48:39.758Z,97.80
2019-01-08T07:51:08.198Z,97.60
2019-01-08T07:53:50.977Z,97.80
2019-01-08T07:56:19.990Z,97.80
2019-01-08T07:58:48.503Z,97.80
2019-01-08T08:01:17.848Z,97.80
2019-01-08T08:03:48.789Z,97.70
2019-01-08T08:06:19.236Z,97.60
2019-01-08T08:08:48.721Z,97.50
2019-01-08T08:11:17.698Z,97.50
2019-01-08T08:13:46.137Z,97.60
2019-01-08T08:16:15.716Z,97.70
2019-01-08T08:18:44.926Z,97.70
2019-01-08T08:21:14.295Z,97.60
2019-01-08T08:23:45.108Z,97.50
2019-01-08T08:26:13.601Z,97.50
2019-01-08T08:28:49.460Z,97.40
2019-01-08T08:31:19.366Z,97.30
2019-01-08T08:33:48.772Z,97.30
2019-01-08T08:36:17.895Z,97.40
2019-01-08T08:38:47.135Z,97.00
2019-01-08T08:41:15.907Z,96.80
2019-01-08T08:43:45.462Z,97.00
2019-01-08T08:46:14.643Z,96.40
2019-01-08T08:48:44.076Z,96.10
2019-01-08T08:51:13.252Z,96.10
2019-01-08T08:53:42.419Z,96.10
2019-01-08T08:56:17.356Z,95.90
2019-01-08T08:58:46.543Z,95.50
2019-01-08T09:01:15.951Z,94.70
2019-01-08T09:03:45.248Z,94.10
2019-01-08T09:06:13.736Z,94.00
2019-01-08T09:08:42.170Z,93.40
2019-01-08T09:11:10.632Z,93.70
2019-01-08T09:13:58.433Z,94.30
2019-01-08T09:16:26.894Z,93.70
2019-01-08T09:18:55.326Z,94.00
2019-01-08T09:21:23.781Z,93.90
2019-01-08T09:23:52.227Z,90.90
2019-01-08T09:26:20.686Z,90.20
2019-01-08T09:28:49.125Z,85.90
2019-01-08T09:31:17.567Z,88.10
2019-01-08T09:33:46.456Z,84.70
2019-01-08T09:36:16.684Z,78.20
2019-01-08T09:38:46.008Z,82.70
2019-01-08T09:41:22.218Z,82.50
2019-01-08T09:43:51.782Z,78.70
2019-01-08T09:49:50.409Z,80.90
2019-01-08T09:52:21.201Z,78.00
2019-01-08T09:54:50.740Z,71.50
2019-01-08T09:57:19.250Z,73.30
2019-01-08T09:59:59.663Z,68.10
2019-01-08T10:02:40.425Z,60.10
2019-01-08T10:05:09.003Z,59.30
2019-01-08T10:07:56.802Z,68.80
2019-01-08T10:10:25.241Z,50.70
2019-01-08T10:12:53.774Z,21.40
2019-01-08T10:15:22.213Z,41.80
2019-01-08T10:17:50.674Z,34.50
2019-01-08T10:20:19.134Z,35.10
2019-01-08T10:22:48.025Z,30.00
2019-01-08T10:25:35.998Z,37.70
2019-01-08T10:28:04.594Z,42.50
2019-01-08T10:30:33.034Z,26.90
2019-01-08T10:33:20.837Z,33.40
2019-01-08T10:35:49.371Z,47.00
2019-01-08T10:38:17.889Z,31.20
2019-01-08T10:41:05.685Z,13.30
2019-01-08T10:43:34.405Z,21.10
2019-01-08T10:46:24.316Z,26.50
2019-01-08T10:48:52.855Z,10.60
2019-01-08T10:51:21.771Z,9.70
2019-01-08T10:53:50.407Z,13.00
2019-01-08T10:56:18.841Z,7.40
2019-01-08T10:58:47.301Z,19.30
2019-01-08T11:01:16.228Z,20.70
2019-01-08T11:03:45.066Z,8.10
2019-01-08T11:06:14.499Z,7.60
2019-01-08T11:08:43.359Z,24.50
2019-01-08T11:11:31.218Z,25.90
2019-01-08T11:14:20.847Z,17.20
2019-01-08T11:16:50.622Z,10.60
2019-01-08T11:19:19.216Z,19.80
2019-01-08T11:21:47.660Z,20.80
2019-01-08T11:24:16.146Z,19.00
2019-01-08T11:26:51.926Z,27.60
2019-01-08T11:29:20.543Z,27.90
2019-01-08T11:31:49.298Z,26.30
2019-01-08T11:34:18.018Z,36.40
2019-01-08T11:36:46.622Z,15.10
2019-01-08T11:39:16.753Z,1.00
2019-01-08T11:41:45.208Z,1.00
2019-01-08T11:44:13.893Z,1.00
2019-01-08T11:46:42.613Z,1.00
2019-01-08T11:49:11.077Z,1.00
2019-01-08T11:51:39.511Z,1.00
2019-01-08T11:54:07.965Z,1.00
2019-01-08T11:56:36.407Z,1.40
2019-01-08T11:59:04.853Z,14.70
2019-01-08T12:01:33.563Z,1.00
2019-01-08T12:04:02.217Z,1.00
2019-01-08T12:06:30.737Z,1.00
2019-01-08T12:08:59.182Z,1.00
2019-01-08T12:11:27.698Z,1.00
2019-01-08T12:13:56.137Z,1.00
2019-01-08T12:16:24.600Z,1.00
2019-01-08T12:18:53.034Z,1.00
2019-01-08T12:21:21.470Z,1.00
2019-01-08T12:23:49.930Z,1.00
2019-01-08T12:26:22.566Z,1.00
2019-01-08T12:29:10.353Z,1.00
2019-01-08T12:32:05.663Z,1.00
2019-01-08T12:34:28.611Z,1.00
2019-01-08T12:36:57.061Z,1.00
2019-01-08T12:39:25.514Z,1.00
2019-01-08T12:41:53.954Z,1.00
2019-01-08T12:44:22.382Z,1.00
2019-01-08T12:46:50.841Z,1.00
2019-01-08T12:49:19.270Z,1.00
2019-01-08T12:51:47.731Z,1.00
2019-01-08T12:54:16.153Z,1.00
2019-01-08T12:56:44.688Z,1.00
2019-01-08T12:59:13.131Z,1.30
2019-01-08T13:01:41.639Z,13.10
2019-01-08T13:04:10.095Z,6.50
2019-01-08T13:06:38.526Z,1.00
2019-01-08T13:09:07.971Z,1.80
2019-01-08T13:11:36.407Z,26.10
2019-01-08T13:14:04.867Z,41.10
2019-01-08T13:16:33.371Z,33.70
2019-01-08T13:19:02.104Z,39.40
2019-01-08T13:21:30.871Z,51.20
2019-01-08T13:23:59.311Z,52.50
2019-01-08T13:26:27.786Z,47.90
2019-01-08T13:28:56.372Z,50.00
2019-01-08T13:31:25.027Z,49.40
2019-01-08T13:33:53.542Z,58.60
2019-01-08T13:36:22.006Z,69.70
2019-01-08T13:38:50.445Z,73.90
2019-01-08T13:41:18.958Z,65.50
2019-01-08T13:43:47.499Z,73.90
2019-01-08T13:46:21.634Z,75.10
2019-01-08T13:48:50.148Z,81.20
2019-01-08T13:51:18.642Z,76.50
2019-01-08T13:53:47.139Z,72.90
2019-01-08T13:56:15.606Z,77.30
2019-01-08T13:58:44.104Z,72.80
2019-01-08T14:01:12.670Z,75.70
2019-01-08T14:03:41.130Z,67.10
2019-01-08T14:06:09.857Z,69.30
2019-01-08T14:08:38.304Z,70.90
2019-01-08T14:11:06.793Z,67.40
2019-01-08T14:13:35.315Z,71.10
2019-01-08T14:16:23.113Z,71.60
2019-01-08T14:19:10.909Z,70.20
2019-01-08T14:21:46.191Z,67.80
2019-01-08T14:24:14.630Z,72.90
2019-01-08T14:26:43.075Z,71.70
2019-01-08T14:29:11.673Z,75.80
2019-01-08T14:31:59.638Z,75.00
2019-01-08T14:34:28.424Z,76.00
2019-01-08T14:36:56.871Z,72.30
2019-01-08T14:39:25.402Z,78.10
2019-01-08T14:41:53.850Z,74.20
2019-01-08T14:44:22.303Z,78.70
2019-01-08T14:46:50.831Z,77.30
2019-01-08T14:49:19.270Z,85.40
2019-01-08T14:51:47.722Z,85.00
2019-01-08T14:54:16.164Z,86.30
2019-01-08T14:56:44.642Z,85.60
2019-01-08T14:59:13.235Z,87.10
2019-01-08T15:01:41.672Z,82.40
2019-01-08T15:04:10.129Z,83.40
2019-01-08T15:06:38.665Z,87.10
2019-01-08T15:09:07.465Z,85.10
2019-01-08T15:11:35.906Z,86.40
2019-01-08T15:14:04.371Z,82.00
2019-01-08T15:16:32.882Z,78.90
2019-01-08T15:19:01.364Z,78.50
2019-01-08T15:21:29.851Z,77.70
2019-01-08T15:23:58.355Z,77.70
2019-01-08T15:26:26.991Z,74.80
2019-01-08T15:28:55.427Z,74.00
2019-01-08T15:31:23.899Z,74.60
2019-01-08T15:33:52.334Z,65.50
2019-01-08T15:36:20.900Z,69.70
2019-01-08T15:38:49.585Z,71.40
2019-01-08T15:41:18.132Z,67.30
2019-01-08T15:43:46.651Z,68.00
2019-01-08T15:46:34.422Z,62.50
2019-01-08T15:49:02.886Z,67.90
2019-01-08T15:51:50.667Z,66.80
2019-01-08T15:54:21.883Z,66.30
2019-01-08T15:56:50.314Z,75.50
2019-01-08T15:59:18.761Z,76.70
2019-01-08T16:01:47.292Z,77.80
2019-01-08T16:04:15.729Z,75.90
2019-01-08T16:06:44.187Z,72.50
2019-01-08T16:09:12.689Z,74.00
2019-01-08T16:12:00.501Z,75.30
2019-01-08T16:14:29.020Z,68.80
2019-01-08T16:16:57.517Z,69.40
2019-01-08T16:19:26.005Z,71.70
2019-01-08T16:21:54.505Z,73.30
2019-01-08T16:24:23.111Z,68.60
2019-01-08T16:26:51.559Z,67.30
2019-01-08T16:29:20.042Z,67.60
2019-01-08T16:31:48.552Z,66.20
2019-01-08T16:34:17.494Z,67.20
2019-01-08T16:36:45.986Z,69.80
2019-01-08T16:39:14.418Z,68.20
2019-01-08T16:41:42.893Z,64.40
2019-01-08T16:44:11.394Z,63.50
2019-01-08T16:46:39.882Z,70.90
2019-01-08T16:49:08.319Z,72.00
2019-01-08T16:51:36.781Z,72.20
2019-01-08T16:54:05.222Z,70.80
2019-01-08T16:56:33.684Z,73.50
2019-01-08T16:59:02.123Z,74.30
2019-01-08T17:01:30.652Z,73.60
2019-01-08T17:03:59.112Z,68.30
2019-01-08T17:06:27.549Z,70.90
2019-01-08T17:08:56.015Z,69.70
2019-01-08T17:11:24.448Z,68.60
2019-01-08T17:13:52.911Z,69.40
2019-01-08T17:16:21.346Z,67.20
2019-01-08T17:18:49.804Z,72.70
2019-01-08T17:21:18.239Z,78.40
2019-01-08T17:23:46.677Z,79.80
2019-01-08T17:26:15.136Z,81.40
2019-01-08T17:28:43.580Z,80.10
2019-01-08T17:31:12.034Z,79.90
2019-01-08T17:33:40.538Z,82.80
2019-01-08T17:36:28.340Z,80.60
2019-01-08T17:38:56.775Z,83.00
2019-01-08T17:41:44.579Z,80.50
2019-01-08T17:44:13.018Z,79.40
2019-01-08T17:46:41.474Z,79.30
2019-01-08T17:49:09.911Z,78.60
2019-01-08T17:51:38.371Z,76.80
2019-01-08T17:54:06.920Z,79.30
2019-01-08T17:56:35.426Z,78.60
2019-01-08T17:59:07.273Z,76.10
2019-01-08T18:01:36.154Z,76.10
2019-01-08T18:04:04.625Z,74.80
2019-01-08T18:06:33.140Z,73.10
2019-01-08T18:09:01.579Z,75.40
2019-01-08T18:11:30.049Z,70.60
2019-01-08T18:13:58.808Z,71.50
2019-01-08T18:16:27.322Z,77.50
2019-01-08T18:18:55.849Z,74.70
2019-01-08T18:21:24.310Z,73.70
2019-01-08T18:23:52.753Z,75.60
2019-01-08T18:26:21.215Z,74.90
2019-01-08T18:28:49.655Z,78.30
2019-01-08T18:31:18.102Z,77.10
2019-01-08T18:33:51.680Z,73.90
2019-01-08T18:36:17.015Z,76.30
2019-01-08T18:39:05.796Z,67.80
2019-01-08T18:41:34.234Z,64.50
2019-01-08T18:44:02.767Z,68.90
2019-01-08T18:46:31.266Z,66.10
2019-01-08T18:48:59.729Z,68.60
2019-01-08T18:51:28.169Z,67.20
2019-01-08T18:54:08.789Z,68.90
2019-01-08T18:56:37.228Z,60.70
2019-01-08T18:59:05.666Z,64.00
2019-01-08T19:01:53.477Z,64.50
2019-01-08T19:04:21.911Z,66.80
2019-01-08T19:06:50.438Z,66.60
2019-01-08T19:09:28.376Z,62.60
2019-01-08T19:12:17.748Z,64.50
2019-01-08T19:14:46.222Z,69.80
2019-01-08T19:17:14.929Z,66.30
2019-01-08T19:19:43.355Z,71.10
2019-01-08T19:22:11.799Z,60.00
2019-01-08T19:24:40.263Z,70.70
2019-01-08T19:27:08.699Z,79.30
2019-01-08T19:29:37.195Z,82.90
2019-01-08T19:32:05.636Z,87.00
2019-01-08T19:34:34.129Z,88.60
2019-01-08T19:37:02.755Z,90.50
2019-01-08T19:39:50.638Z,90.90
2019-01-08T19:42:19.074Z,91.40
2019-01-08T19:44:47.533Z,92.50
2019-01-08T19:47:35.349Z,93.20
2019-01-08T19:50:05.032Z,92.90
2019-01-08T19:52:33.486Z,92.70
2019-01-08T19:55:01.998Z,93.10
2019-01-08T19:57:30.490Z,93.30
2019-01-08T19:59:58.930Z,92.80
2019-01-08T20:02:27.362Z,91.60
2019-01-08T20:04:55.862Z,91.30
2019-01-08T20:07:24.364Z,90.50
2019-01-08T20:09:53.272Z,88.50
2019-01-08T20:12:21.706Z,86.30
2019-01-08T20:15:09.515Z,86.50
2019-01-08T20:17:37.946Z,84.90
2019-01-08T20:20:07.734Z,86.60
2019-01-08T20:22:36.349Z,85.30
2019-01-08T20:25:05.398Z,86.20
2019-01-08T20:27:33.915Z,82.40
2019-01-08T20:30:02.483Z,82.20
2019-01-08T20:32:30.978Z,82.30
2019-01-08T20:34:59.530Z,81.60
2019-01-08T20:37:31.024Z,82.50
2019-01-08T20:39:59.544Z,76.80
2019-01-08T20:42:28.203Z,77.50
2019-01-08T20:44:57.188Z,76.10
2019-01-08T20:47:25.706Z,77.10
2019-01-08T20:49:54.155Z,76.80
2019-01-08T20:52:22.597Z,76.90
2019-01-08T20:54:51.126Z,74.10
2019-01-08T20:57:19.571Z,69.30
2019-01-08T20:59:48.038Z,68.90
2019-01-08T21:02:16.546Z,67.00
2019-01-08T21:04:45.095Z,67.50
2019-01-08T21:07:13.607Z,66.90
2019-01-08T21:09:42.094Z,70.10
2019-01-08T21:12:16.968Z,63.50
2019-01-08T21:14:51.874Z,63.70
2019-01-08T21:17:21.915Z,62.20
2019-01-08T21:19:50.418Z,65.20
2019-01-08T21:22:33.899Z,66.00
2019-01-08T21:25:02.402Z,64.00
2019-01-08T21:27:30.854Z,65.10
2019-01-08T21:29:59.363Z,57.90
2019-01-08T21:32:27.818Z,57.70
2019-01-08T21:34:56.270Z,58.40
2019-01-08T21:37:24.806Z,59.30
2019-01-08T21:39:53.237Z,54.10
2019-01-08T21:42:21.679Z,55.60
2019-01-08T21:44:50.178Z,49.70
2019-01-08T21:47:18.618Z,42.90
2019-01-08T21:49:47.080Z,43.20
2019-01-08T21:52:15.586Z,42.50
2019-01-08T21:54:44.276Z,40.00
2019-01-08T21:57:12.758Z,40.40
2019-01-08T21:59:41.195Z,40.80
2019-01-08T22:02:09.919Z,44.20
2019-01-08T22:04:38.486Z,50.90
2019-01-08T22:07:07.097Z,49.90
2019-01-08T22:09:36.682Z,51.10
2019-01-08T22:12:05.204Z,55.20
2019-01-08T22:14:33.742Z,52.20
2019-01-08T22:17:02.181Z,52.40
2019-01-08T22:19:30.722Z,50.20
2019-01-08T22:22:18.621Z,52.50
2019-01-08T22:25:07.621Z,47.50
2019-01-08T22:27:36.124Z,43.80
2019-01-08T22:30:05.599Z,44.50
2019-01-08T22:32:34.108Z,42.20
2019-01-08T22:35:02.904Z,39.80
2019-01-08T22:37:31.565Z,42.60
2019-01-08T22:40:00.337Z,42.60
2019-01-08T22:42:28.847Z,41.00
2019-01-08T22:44:58.066Z,37.00
2019-01-08T22:47:26.508Z,41.00
2019-01-08T22:50:14.379Z,47.00
2019-01-08T22:52:42.813Z,48.10
2019-01-08T22:55:11.275Z,44.50
2019-01-08T22:57:39.706Z,52.50
2019-01-08T23:00:15.101Z,51.80
2019-01-08T23:02:43.627Z,53.70
2019-01-08T23:05:12.081Z,53.40
2019-01-08T23:07:40.546Z,58.90
2019-01-08T23:10:09.051Z,60.40
2019-01-08T23:12:37.515Z,55.40
2019-01-08T23:15:12.758Z,57.00
2019-01-08T23:18:00.557Z,53.80
2019-01-08T23:20:29.100Z,50.70
2019-01-08T23:22:57.543Z,49.70
2019-01-08T23:25:26.069Z,44.90
2019-01-08T23:27:54.535Z,41.70
2019-01-08T23:30:23.080Z,43.00
2019-01-08T23:32:51.514Z,50.10
2019-01-08T23:35:19.986Z,54.80
2019-01-08T23:37:48.501Z,60.70
2019-01-08T23:40:36.321Z,66.60
2019-01-08T23:43:24.101Z,66.90
2019-01-08T23:45:52.561Z,69.80
2019-01-08T23:48:21.002Z,71.30
2019-01-08T23:50:49.616Z,72.70
2019-01-08T23:53:43.353Z,69.70
2019-01-08T23:56:11.924Z,69.80
2019-01-08T23:58:40.462Z,74.40
